sensor_id;sensor_type;location;lat;lon;timestamp;pressure;altitude;pressure_sealevel;temperature;humidity
5812;BME280;2932;52.400;9.558;2023-02-03T00:01:20;101406.47;;;9.95;88.13
5812;BME280;2932;52.400;9.558;2023-02-03T00:03:47;101378.94;;;9.82;87.96
5812;BME280;2932;52.400;9.558;2023-02-03T00:06:12;101379.69;;;9.48;89.89
5812;BME280;2932;52.400;9.558;2023-02-03T00:08:37;101381.56;;;9.95;88.27
5812;BME280;2932;52.400;9.558;2023-02-03T00:11:03;101373.78;;;9.97;87.79
5812;BME280;2932;52.400;9.558;2023-02-03T00:13:29;101379.13;;;10.02;87.41
5812;BME280;2932;52.400;9.558;2023-02-03T00:15:54;101376.19;;;9.90;87.47
5812;BME280;2932;52.400;9.558;2023-02-03T00:18:20;101382.84;;;9.81;88.69
5812;BME280;2932;52.400;9.558;2023-02-03T00:20:45;101361.09;;;9.96;87.09
5812;BME280;2932;52.400;9.558;2023-02-03T00:23:11;101364.34;;;9.90;87.76
5812;BME280;2932;52.400;9.558;2023-02-03T00:25:37;101373.59;;;10.02;87.31
5812;BME280;2932;52.400;9.558;2023-02-03T00:28:03;101380.22;;;9.76;87.37
5812;BME280;2932;52.400;9.558;2023-02-03T00:30:29;101369.00;;;9.72;87.92
5812;BME280;2932;52.400;9.558;2023-02-03T00:32:55;101374.41;;;9.86;88.10
5812;BME280;2932;52.400;9.558;2023-02-03T00:35:20;101381.56;;;10.13;87.09
5812;BME280;2932;52.400;9.558;2023-02-03T00:37:56;101369.38;;;9.96;87.02
5812;BME280;2932;52.400;9.558;2023-02-03T00:40:24;101383.84;;;9.93;86.94
5812;BME280;2932;52.400;9.558;2023-02-03T00:42:50;101377.03;;;9.99;87.38
5812;BME280;2932;52.400;9.558;2023-02-03T00:45:16;101372.47;;;9.95;87.14
5812;BME280;2932;52.400;9.558;2023-02-03T00:47:42;101369.66;;;9.78;87.48
5812;BME280;2932;52.400;9.558;2023-02-03T00:50:08;101371.66;;;10.12;86.78
5812;BME280;2932;52.400;9.558;2023-02-03T00:52:33;101362.69;;;10.06;86.73
5812;BME280;2932;52.400;9.558;2023-02-03T00:54:59;101358.16;;;9.93;86.81
5812;BME280;2932;52.400;9.558;2023-02-03T00:57:24;101356.84;;;9.90;87.41
5812;BME280;2932;52.400;9.558;2023-02-03T00:59:49;101357.16;;;9.80;87.21
5812;BME280;2932;52.400;9.558;2023-02-03T01:02:15;101362.88;;;10.10;86.09
5812;BME280;2932;52.400;9.558;2023-02-03T01:04:42;101346.44;;;10.04;86.21
5812;BME280;2932;52.400;9.558;2023-02-03T01:07:07;101343.38;;;9.97;86.59
5812;BME280;2932;52.400;9.558;2023-02-03T01:09:34;101355.06;;;9.94;86.79
5812;BME280;2932;52.400;9.558;2023-02-03T01:11:59;101364.97;;;9.87;86.42
5812;BME280;2932;52.400;9.558;2023-02-03T01:14:25;101367.72;;;9.78;86.96
5812;BME280;2932;52.400;9.558;2023-02-03T01:16:50;101360.91;;;9.84;86.25
5812;BME280;2932;52.400;9.558;2023-02-03T01:19:16;101361.88;;;9.88;86.46
5812;BME280;2932;52.400;9.558;2023-02-03T01:21:41;101359.13;;;9.97;85.90
5812;BME280;2932;52.400;9.558;2023-02-03T01:24:07;101361.41;;;9.95;85.87
5812;BME280;2932;52.400;9.558;2023-02-03T01:26:34;101366.13;;;9.94;85.19
5812;BME280;2932;52.400;9.558;2023-02-03T01:28:59;101367.56;;;9.83;86.28
5812;BME280;2932;52.400;9.558;2023-02-03T01:31:39;101357.34;;;9.92;86.07
5812;BME280;2932;52.400;9.558;2023-02-03T01:34:06;101344.97;;;9.81;85.47
5812;BME280;2932;52.400;9.558;2023-02-03T01:36:32;101366.94;;;9.95;85.99
5812;BME280;2932;52.400;9.558;2023-02-03T01:38:58;101354.25;;;9.94;85.97
5812;BME280;2932;52.400;9.558;2023-02-03T01:41:28;101355.38;;;10.01;85.31
5812;BME280;2932;52.400;9.558;2023-02-03T01:43:56;101349.38;;;9.91;85.97
5812;BME280;2932;52.400;9.558;2023-02-03T01:46:26;101371.47;;;10.08;85.10
5812;BME280;2932;52.400;9.558;2023-02-03T01:48:55;101357.16;;;10.06;84.87
5812;BME280;2932;52.400;9.558;2023-02-03T01:51:22;101344.66;;;10.00;84.80
5812;BME280;2932;52.400;9.558;2023-02-03T01:53:50;101336.22;;;9.96;84.63
5812;BME280;2932;52.400;9.558;2023-02-03T01:56:17;101329.72;;;10.27;83.88
5812;BME280;2932;52.400;9.558;2023-02-03T01:58:43;101337.50;;;9.90;84.73
5812;BME280;2932;52.400;9.558;2023-02-03T02:01:09;101319.44;;;9.84;84.93
5812;BME280;2932;52.400;9.558;2023-02-03T02:03:45;101301.75;;;10.20;83.79
5812;BME280;2932;52.400;9.558;2023-02-03T02:06:13;101304.34;;;9.90;84.66
5812;BME280;2932;52.400;9.558;2023-02-03T02:08:40;101293.78;;;10.27;83.70
5812;BME280;2932;52.400;9.558;2023-02-03T02:11:06;101292.31;;;10.38;83.42
5812;BME280;2932;52.400;9.558;2023-02-03T02:13:33;101264.47;;;10.17;83.82
5812;BME280;2932;52.400;9.558;2023-02-03T02:32:04;101252.63;;;9.99;83.66
5812;BME280;2932;52.400;9.558;2023-02-03T02:40:22;101250.34;;;10.27;82.72
5812;BME280;2932;52.400;9.558;2023-02-03T02:43:03;101264.16;;;10.27;82.64
5812;BME280;2932;52.400;9.558;2023-02-03T02:48:12;101262.63;;;10.56;82.11
5812;BME280;2932;52.400;9.558;2023-02-03T02:50:43;101243.94;;;10.44;82.25
5812;BME280;2932;52.400;9.558;2023-02-03T02:53:10;101238.28;;;10.32;82.35
5812;BME280;2932;52.400;9.558;2023-02-03T02:55:38;101231.06;;;10.48;81.79
5812;BME280;2932;52.400;9.558;2023-02-03T02:58:08;101228.03;;;10.15;82.65
5812;BME280;2932;52.400;9.558;2023-02-03T03:00:36;101229.03;;;10.02;83.34
5812;BME280;2932;52.400;9.558;2023-02-03T03:03:19;101237.03;;;9.95;83.37
5812;BME280;2932;52.400;9.558;2023-02-03T03:05:51;101240.72;;;10.16;82.57
5812;BME280;2932;52.400;9.558;2023-02-03T03:08:22;101232.47;;;9.90;83.47
5812;BME280;2932;52.400;9.558;2023-02-03T03:10:49;101243.03;;;10.23;82.33
5812;BME280;2932;52.400;9.558;2023-02-03T03:13:22;101254.38;;;10.39;82.05
5812;BME280;2932;52.400;9.558;2023-02-03T03:15:51;101256.53;;;10.24;81.89
5812;BME280;2932;52.400;9.558;2023-02-03T03:18:34;101247.72;;;10.31;82.18
5812;BME280;2932;52.400;9.558;2023-02-03T03:21:03;101255.28;;;10.60;81.16
5812;BME280;2932;52.400;9.558;2023-02-03T03:23:37;101247.03;;;10.43;81.54
5812;BME280;2932;52.400;9.558;2023-02-03T03:26:14;101252.78;;;10.20;82.08
5812;BME280;2932;52.400;9.558;2023-02-03T03:28:47;101230.16;;;10.27;81.81
5812;BME280;2932;52.400;9.558;2023-02-03T03:31:15;101228.88;;;10.24;81.84
5812;BME280;2932;52.400;9.558;2023-02-03T03:33:41;101205.91;;;10.32;81.27
5812;BME280;2932;52.400;9.558;2023-02-03T03:38:48;101198.19;;;10.47;80.71
5812;BME280;2932;52.400;9.558;2023-02-03T03:41:28;101202.28;;;10.41;80.65
5812;BME280;2932;52.400;9.558;2023-02-03T03:44:00;101209.00;;;10.40;80.59
5812;BME280;2932;52.400;9.558;2023-02-03T03:46:32;101204.19;;;10.57;80.44
5812;BME280;2932;52.400;9.558;2023-02-03T03:49:02;101203.81;;;10.21;81.33
5812;BME280;2932;52.400;9.558;2023-02-03T03:51:36;101187.03;;;10.17;80.87
5812;BME280;2932;52.400;9.558;2023-02-03T03:54:07;101212.22;;;10.42;80.74
5812;BME280;2932;52.400;9.558;2023-02-03T03:56:57;101187.88;;;10.26;80.46
5812;BME280;2932;52.400;9.558;2023-02-03T03:59:29;101185.25;;;10.30;80.46
5812;BME280;2932;52.400;9.558;2023-02-03T04:01:56;101203.56;;;10.43;80.35
5812;BME280;2932;52.400;9.558;2023-02-03T04:04:23;101201.84;;;10.39;80.57
5812;BME280;2932;52.400;9.558;2023-02-03T04:06:52;101180.56;;;10.22;80.62
5812;BME280;2932;52.400;9.558;2023-02-03T04:09:17;101183.41;;;10.43;80.34
5812;BME280;2932;52.400;9.558;2023-02-03T04:11:43;101193.31;;;10.44;80.02
5812;BME280;2932;52.400;9.558;2023-02-03T04:14:28;101189.47;;;10.36;80.20
5812;BME280;2932;52.400;9.558;2023-02-03T04:16:54;101184.75;;;10.75;79.17
5812;BME280;2932;52.400;9.558;2023-02-03T04:19:19;101186.03;;;10.77;79.03
5812;BME280;2932;52.400;9.558;2023-02-03T04:21:45;101162.13;;;10.73;78.85
5812;BME280;2932;52.400;9.558;2023-02-03T04:24:10;101188.88;;;10.60;79.31
5812;BME280;2932;52.400;9.558;2023-02-03T04:26:36;101187.09;;;10.55;79.31
5812;BME280;2932;52.400;9.558;2023-02-03T04:29:02;101189.88;;;10.55;79.74
5812;BME280;2932;52.400;9.558;2023-02-03T04:31:27;101187.53;;;10.37;79.82
5812;BME280;2932;52.400;9.558;2023-02-03T04:33:52;101182.22;;;10.52;79.59
5812;BME280;2932;52.400;9.558;2023-02-03T04:36:18;101186.66;;;10.45;79.93
5812;BME280;2932;52.400;9.558;2023-02-03T04:38:43;101179.50;;;10.44;79.77
5812;BME280;2932;52.400;9.558;2023-02-03T04:41:08;101198.09;;;10.17;80.74
5812;BME280;2932;52.400;9.558;2023-02-03T04:43:34;101185.50;;;10.46;80.19
5812;BME280;2932;52.400;9.558;2023-02-03T04:45:59;101186.84;;;10.40;79.67
5812;BME280;2932;52.400;9.558;2023-02-03T04:48:25;101188.28;;;10.46;79.57
5812;BME280;2932;52.400;9.558;2023-02-03T04:50:51;101178.59;;;10.22;80.27
5812;BME280;2932;52.400;9.558;2023-02-03T04:53:16;101173.69;;;10.37;80.07
5812;BME280;2932;52.400;9.558;2023-02-03T04:55:45;101175.91;;;10.43;79.48
5812;BME280;2932;52.400;9.558;2023-02-03T04:58:11;101175.59;;;10.45;79.43
5812;BME280;2932;52.400;9.558;2023-02-03T05:00:36;101173.16;;;10.43;79.14
5812;BME280;2932;52.400;9.558;2023-02-03T05:03:02;101163.69;;;10.53;78.87
5812;BME280;2932;52.400;9.558;2023-02-03T05:05:27;101168.41;;;10.52;78.92
5812;BME280;2932;52.400;9.558;2023-02-03T05:07:52;101168.66;;;10.30;79.37
5812;BME280;2932;52.400;9.558;2023-02-03T05:10:18;101162.09;;;10.43;79.03
5812;BME280;2932;52.400;9.558;2023-02-03T05:12:43;101150.31;;;10.55;78.71
5812;BME280;2932;52.400;9.558;2023-02-03T05:15:09;101143.13;;;10.62;78.24
5812;BME280;2932;52.400;9.558;2023-02-03T05:17:34;101150.72;;;10.74;77.86
5812;BME280;2932;52.400;9.558;2023-02-03T05:20:05;101153.22;;;10.88;77.24
5812;BME280;2932;52.400;9.558;2023-02-03T05:22:30;101110.31;;;10.52;77.98
5812;BME280;2932;52.400;9.558;2023-02-03T05:24:55;101130.50;;;10.44;78.57
5812;BME280;2932;52.400;9.558;2023-02-03T05:27:21;101121.81;;;10.63;78.15
5812;BME280;2932;52.400;9.558;2023-02-03T05:29:46;101126.56;;;10.83;78.04
5812;BME280;2932;52.400;9.558;2023-02-03T05:32:11;101126.13;;;10.43;78.42
5812;BME280;2932;52.400;9.558;2023-02-03T05:34:37;101116.94;;;10.60;77.77
5812;BME280;2932;52.400;9.558;2023-02-03T05:37:02;101127.53;;;10.58;78.52
5812;BME280;2932;52.400;9.558;2023-02-03T05:39:28;101137.44;;;10.59;78.44
5812;BME280;2932;52.400;9.558;2023-02-03T05:41:53;101130.03;;;10.42;78.97
5812;BME280;2932;52.400;9.558;2023-02-03T05:44:20;101111.03;;;10.70;78.30
5812;BME280;2932;52.400;9.558;2023-02-03T05:46:46;101107.00;;;10.29;79.08
5812;BME280;2932;52.400;9.558;2023-02-03T05:49:11;101128.88;;;10.43;79.07
5812;BME280;2932;52.400;9.558;2023-02-03T05:51:37;101119.06;;;10.25;79.57
5812;BME280;2932;52.400;9.558;2023-02-03T05:54:03;101119.31;;;10.70;78.72
5812;BME280;2932;52.400;9.558;2023-02-03T05:56:29;101109.81;;;10.50;79.46
5812;BME280;2932;52.400;9.558;2023-02-03T05:58:54;101110.97;;;10.49;79.66
5812;BME280;2932;52.400;9.558;2023-02-03T06:01:20;101097.88;;;10.38;79.64
5812;BME280;2932;52.400;9.558;2023-02-03T06:03:46;101115.00;;;10.22;80.67
5812;BME280;2932;52.400;9.558;2023-02-03T06:06:11;101123.59;;;10.29;80.61
5812;BME280;2932;52.400;9.558;2023-02-03T06:08:37;101129.81;;;10.56;79.96
5812;BME280;2932;52.400;9.558;2023-02-03T06:11:02;101120.47;;;10.69;79.14
5812;BME280;2932;52.400;9.558;2023-02-03T06:13:27;101125.25;;;10.60;79.88
5812;BME280;2932;52.400;9.558;2023-02-03T06:15:53;101124.84;;;10.41;80.26
5812;BME280;2932;52.400;9.558;2023-02-03T06:18:18;101112.84;;;10.37;81.18
5812;BME280;2932;52.400;9.558;2023-02-03T06:20:43;101122.88;;;10.41;81.60
5812;BME280;2932;52.400;9.558;2023-02-03T06:23:09;101111.09;;;10.23;82.44
5812;BME280;2932;52.400;9.558;2023-02-03T06:25:34;101127.28;;;9.95;84.20
5812;BME280;2932;52.400;9.558;2023-02-03T06:28:00;101121.34;;;10.14;84.05
5812;BME280;2932;52.400;9.558;2023-02-03T06:30:25;101116.38;;;9.99;84.80
5812;BME280;2932;52.400;9.558;2023-02-03T06:32:50;101110.22;;;9.85;85.54
5812;BME280;2932;52.400;9.558;2023-02-03T06:35:16;101123.13;;;10.19;85.07
5812;BME280;2932;52.400;9.558;2023-02-03T06:37:42;101112.84;;;9.81;85.80
5812;BME280;2932;52.400;9.558;2023-02-03T06:40:09;101140.47;;;9.90;85.61
5812;BME280;2932;52.400;9.558;2023-02-03T06:42:34;101125.13;;;10.01;85.55
5812;BME280;2932;52.400;9.558;2023-02-03T06:45:00;101122.16;;;10.15;85.68
5812;BME280;2932;52.400;9.558;2023-02-03T06:47:25;101124.66;;;9.99;86.25
5812;BME280;2932;52.400;9.558;2023-02-03T06:49:50;101121.22;;;10.02;86.66
5812;BME280;2932;52.400;9.558;2023-02-03T06:52:16;101109.25;;;9.81;87.18
5812;BME280;2932;52.400;9.558;2023-02-03T06:54:42;101107.28;;;9.98;87.09
5812;BME280;2932;52.400;9.558;2023-02-03T06:57:07;101108.81;;;10.17;86.16
5812;BME280;2932;52.400;9.558;2023-02-03T06:59:32;101105.00;;;9.92;87.19
5812;BME280;2932;52.400;9.558;2023-02-03T07:01:58;101092.81;;;9.93;86.93
5812;BME280;2932;52.400;9.558;2023-02-03T07:04:23;101083.59;;;9.72;88.22
5812;BME280;2932;52.400;9.558;2023-02-03T07:06:48;101085.53;;;9.71;88.96
5812;BME280;2932;52.400;9.558;2023-02-03T07:09:14;101097.69;;;9.96;88.02
5812;BME280;2932;52.400;9.558;2023-02-03T07:11:40;101107.78;;;9.92;88.31
5812;BME280;2932;52.400;9.558;2023-02-03T07:14:05;101104.94;;;10.09;87.84
5812;BME280;2932;52.400;9.558;2023-02-03T07:16:31;101097.03;;;9.90;87.74
5812;BME280;2932;52.400;9.558;2023-02-03T07:18:58;101116.81;;;10.01;87.92
5812;BME280;2932;52.400;9.558;2023-02-03T07:21:24;101113.47;;;9.87;88.36
5812;BME280;2932;52.400;9.558;2023-02-03T07:23:50;101086.41;;;10.01;88.07
5812;BME280;2932;52.400;9.558;2023-02-03T07:26:16;101061.28;;;9.94;88.41
5812;BME280;2932;52.400;9.558;2023-02-03T07:28:41;101095.94;;;9.83;89.20
5812;BME280;2932;52.400;9.558;2023-02-03T07:31:07;101065.69;;;9.86;88.31
5812;BME280;2932;52.400;9.558;2023-02-03T07:33:34;101079.97;;;9.88;89.29
5812;BME280;2932;52.400;9.558;2023-02-03T07:36:01;101067.03;;;9.63;89.63
5812;BME280;2932;52.400;9.558;2023-02-03T07:38:28;101063.41;;;9.88;89.37
5812;BME280;2932;52.400;9.558;2023-02-03T07:40:54;101030.63;;;9.61;89.86
5812;BME280;2932;52.400;9.558;2023-02-03T07:43:19;101032.66;;;9.90;88.92
5812;BME280;2932;52.400;9.558;2023-02-03T07:45:45;101072.38;;;10.15;88.93
5812;BME280;2932;52.400;9.558;2023-02-03T07:48:10;101066.78;;;9.94;88.13
5812;BME280;2932;52.400;9.558;2023-02-03T07:50:36;101068.75;;;9.93;88.43
5812;BME280;2932;52.400;9.558;2023-02-03T07:53:03;101061.19;;;9.64;89.97
5812;BME280;2932;52.400;9.558;2023-02-03T07:55:28;101089.94;;;9.63;89.94
5812;BME280;2932;52.400;9.558;2023-02-03T07:57:55;101056.19;;;9.58;89.79
5812;BME280;2932;52.400;9.558;2023-02-03T08:00:21;101068.94;;;9.88;88.91
5812;BME280;2932;52.400;9.558;2023-02-03T08:02:46;101053.97;;;9.89;88.37
5812;BME280;2932;52.400;9.558;2023-02-03T08:05:13;101068.91;;;9.97;87.77
5812;BME280;2932;52.400;9.558;2023-02-03T08:07:38;101061.28;;;9.94;88.31
5812;BME280;2932;52.400;9.558;2023-02-03T08:10:04;101048.69;;;10.05;87.92
5812;BME280;2932;52.400;9.558;2023-02-03T08:12:29;101055.19;;;10.00;87.78
5812;BME280;2932;52.400;9.558;2023-02-03T08:14:55;101038.97;;;9.99;87.71
5812;BME280;2932;52.400;9.558;2023-02-03T08:17:20;101034.81;;;10.14;87.01
5812;BME280;2932;52.400;9.558;2023-02-03T08:19:46;101054.88;;;10.02;87.04
5812;BME280;2932;52.400;9.558;2023-02-03T08:22:11;101048.97;;;10.12;86.91
5812;BME280;2932;52.400;9.558;2023-02-03T08:24:41;101028.28;;;10.18;86.75
5812;BME280;2932;52.400;9.558;2023-02-03T08:27:10;101038.34;;;10.31;86.09
5812;BME280;2932;52.400;9.558;2023-02-03T08:29:35;101046.53;;;10.19;86.20
5812;BME280;2932;52.400;9.558;2023-02-03T08:32:00;101039.41;;;10.10;86.83
5812;BME280;2932;52.400;9.558;2023-02-03T08:34:26;101055.78;;;10.15;86.53
5812;BME280;2932;52.400;9.558;2023-02-03T08:36:51;101051.84;;;10.33;85.95
5812;BME280;2932;52.400;9.558;2023-02-03T08:39:16;101061.44;;;10.35;85.98
5812;BME280;2932;52.400;9.558;2023-02-03T08:41:42;101065.06;;;10.48;85.02
5812;BME280;2932;52.400;9.558;2023-02-03T08:44:07;101056.53;;;10.62;84.66
5812;BME280;2932;52.400;9.558;2023-02-03T08:46:32;101052.25;;;10.44;85.33
5812;BME280;2932;52.400;9.558;2023-02-03T08:48:59;101055.34;;;10.42;85.43
5812;BME280;2932;52.400;9.558;2023-02-03T08:51:27;101059.47;;;10.36;86.48
5812;BME280;2932;52.400;9.558;2023-02-03T08:53:52;101054.00;;;10.27;86.64
5812;BME280;2932;52.400;9.558;2023-02-03T08:56:17;101050.88;;;10.29;86.95
5812;BME280;2932;52.400;9.558;2023-02-03T08:58:43;101044.28;;;10.42;86.60
5812;BME280;2932;52.400;9.558;2023-02-03T09:01:11;101047.28;;;10.37;86.36
5812;BME280;2932;52.400;9.558;2023-02-03T09:03:37;101046.72;;;10.44;85.83
5812;BME280;2932;52.400;9.558;2023-02-03T09:06:03;101056.81;;;10.69;85.61
5812;BME280;2932;52.400;9.558;2023-02-03T09:08:29;101058.16;;;10.63;84.76
5812;BME280;2932;52.400;9.558;2023-02-03T09:10:54;101067.19;;;10.51;85.06
5812;BME280;2932;52.400;9.558;2023-02-03T09:13:20;101084.50;;;10.69;84.29
5812;BME280;2932;52.400;9.558;2023-02-03T09:15:45;101078.50;;;10.88;83.54
5812;BME280;2932;52.400;9.558;2023-02-03T09:18:11;101081.72;;;10.69;83.59
5812;BME280;2932;52.400;9.558;2023-02-03T09:20:36;101074.31;;;11.02;82.96
5812;BME280;2932;52.400;9.558;2023-02-03T09:23:02;101066.47;;;11.05;82.15
5812;BME280;2932;52.400;9.558;2023-02-03T09:25:27;101083.50;;;10.94;82.67
5812;BME280;2932;52.400;9.558;2023-02-03T09:27:52;101070.53;;;10.86;83.15
5812;BME280;2932;52.400;9.558;2023-02-03T09:30:18;101061.47;;;10.98;82.90
5812;BME280;2932;52.400;9.558;2023-02-03T09:32:43;101067.41;;;10.67;84.25
5812;BME280;2932;52.400;9.558;2023-02-03T09:35:13;101062.47;;;10.52;85.44
5812;BME280;2932;52.400;9.558;2023-02-03T09:37:38;101054.25;;;10.64;85.56
5812;BME280;2932;52.400;9.558;2023-02-03T09:40:04;101067.22;;;10.72;85.17
5812;BME280;2932;52.400;9.558;2023-02-03T09:42:47;101062.00;;;10.91;85.15
5812;BME280;2932;52.400;9.558;2023-02-03T09:45:23;101072.53;;;10.56;85.63
5812;BME280;2932;52.400;9.558;2023-02-03T09:47:52;101059.97;;;10.59;86.10
5812;BME280;2932;52.400;9.558;2023-02-03T09:50:23;101065.41;;;10.47;86.19
5812;BME280;2932;52.400;9.558;2023-02-03T09:52:50;101065.38;;;10.55;86.03
5812;BME280;2932;52.400;9.558;2023-02-03T09:58:18;101074.28;;;10.61;85.69
5812;BME280;2932;52.400;9.558;2023-02-03T10:00:51;101064.84;;;10.62;85.90
5812;BME280;2932;52.400;9.558;2023-02-03T10:03:31;101067.38;;;10.46;86.03
5812;BME280;2932;52.400;9.558;2023-02-03T10:17:53;101074.44;;;10.85;85.07
5812;BME280;2932;52.400;9.558;2023-02-03T10:20:39;101079.88;;;10.52;85.45
5812;BME280;2932;52.400;9.558;2023-02-03T10:23:12;101074.59;;;10.39;86.71
5812;BME280;2932;52.400;9.558;2023-02-03T10:25:43;101089.75;;;10.83;85.30
5812;BME280;2932;52.400;9.558;2023-02-03T10:28:16;101097.41;;;10.56;85.65
5812;BME280;2932;52.400;9.558;2023-02-03T10:30:53;101092.59;;;10.95;84.96
5812;BME280;2932;52.400;9.558;2023-02-03T10:33:22;101104.22;;;10.88;85.28
5812;BME280;2932;52.400;9.558;2023-02-03T10:35:52;101114.28;;;10.72;85.26
5812;BME280;2932;52.400;9.558;2023-02-03T10:41:09;101132.50;;;10.94;84.90
5812;BME280;2932;52.400;9.558;2023-02-03T10:43:35;101130.88;;;10.93;84.54
5812;BME280;2932;52.400;9.558;2023-02-03T10:46:17;101138.19;;;10.97;85.12
5812;BME280;2932;52.400;9.558;2023-02-03T10:48:43;101145.53;;;10.73;85.38
5812;BME280;2932;52.400;9.558;2023-02-03T10:51:21;101137.16;;;10.81;85.46
5812;BME280;2932;52.400;9.558;2023-02-03T10:53:47;101123.28;;;11.11;84.91
5812;BME280;2932;52.400;9.558;2023-02-03T10:56:17;101116.91;;;10.89;84.71
5812;BME280;2932;52.400;9.558;2023-02-03T10:58:57;101133.84;;;10.88;84.32
5812;BME280;2932;52.400;9.558;2023-02-03T11:01:26;101125.63;;;11.00;83.87
5812;BME280;2932;52.400;9.558;2023-02-03T11:04:02;101118.47;;;11.20;82.92
5812;BME280;2932;52.400;9.558;2023-02-03T11:06:30;101124.09;;;11.11;83.12
5812;BME280;2932;52.400;9.558;2023-02-03T11:08:55;101133.47;;;10.98;83.13
5812;BME280;2932;52.400;9.558;2023-02-03T11:11:31;101148.81;;;11.37;82.40
5812;BME280;2932;52.400;9.558;2023-02-03T11:16:26;101157.31;;;11.32;81.72
5812;BME280;2932;52.400;9.558;2023-02-03T11:19:00;101153.56;;;11.16;82.06
5812;BME280;2932;52.400;9.558;2023-02-03T11:27:13;101172.88;;;11.45;80.66
5812;BME280;2932;52.400;9.558;2023-02-03T11:29:41;101182.69;;;11.76;79.95
5812;BME280;2932;52.400;9.558;2023-02-03T11:32:21;101175.34;;;11.38;80.36
5812;BME280;2932;52.400;9.558;2023-02-03T11:35:19;101170.97;;;11.37;80.18
5812;BME280;2932;52.400;9.558;2023-02-03T11:37:45;101170.09;;;11.45;79.67
5812;BME280;2932;52.400;9.558;2023-02-03T11:40:22;101175.94;;;11.64;79.12
5812;BME280;2932;52.400;9.558;2023-02-03T11:51:03;101174.28;;;11.51;79.00
5812;BME280;2932;52.400;9.558;2023-02-03T12:05:17;101183.50;;;11.76;75.92
5812;BME280;2932;52.400;9.558;2023-02-03T12:13:26;101192.16;;;12.41;73.45
5812;BME280;2932;52.400;9.558;2023-02-03T12:19:56;101191.16;;;12.12;72.65
5812;BME280;2932;52.400;9.558;2023-02-03T12:25:22;101209.03;;;12.02;71.84
5812;BME280;2932;52.400;9.558;2023-02-03T12:30:43;101212.03;;;12.43;69.93
5812;BME280;2932;52.400;9.558;2023-02-03T12:33:30;101220.41;;;12.67;69.13
5812;BME280;2932;52.400;9.558;2023-02-03T12:38:35;101206.97;;;12.57;67.51
5812;BME280;2932;52.400;9.558;2023-02-03T12:41:10;101200.56;;;12.20;65.82
5812;BME280;2932;52.400;9.558;2023-02-03T12:43:41;101212.31;;;12.62;63.76
5812;BME280;2932;52.400;9.558;2023-02-03T12:56:49;101197.13;;;12.47;59.98
5812;BME280;2932;52.400;9.558;2023-02-03T12:59:22;101218.22;;;12.60;59.82
5812;BME280;2932;52.400;9.558;2023-02-03T13:02:00;101221.78;;;12.49;59.80
5812;BME280;2932;52.400;9.558;2023-02-03T13:04:28;101205.50;;;12.72;59.75
5812;BME280;2932;52.400;9.558;2023-02-03T13:10:03;101197.69;;;12.28;59.85
5812;BME280;2932;52.400;9.558;2023-02-03T13:12:43;101198.22;;;12.79;59.12
5812;BME280;2932;52.400;9.558;2023-02-03T13:15:29;101222.84;;;12.81;59.38
5812;BME280;2932;52.400;9.558;2023-02-03T13:18:09;101222.75;;;13.14;58.55
5812;BME280;2932;52.400;9.558;2023-02-03T13:20:39;101229.69;;;13.20;58.74
5812;BME280;2932;52.400;9.558;2023-02-03T13:23:07;101234.09;;;13.09;58.57
5812;BME280;2932;52.400;9.558;2023-02-03T13:30:45;101238.91;;;12.63;60.21
5812;BME280;2932;52.400;9.558;2023-02-03T13:33:49;101232.88;;;12.49;59.58
5812;BME280;2932;52.400;9.558;2023-02-03T13:39:23;101229.53;;;12.55;58.10
5812;BME280;2932;52.400;9.558;2023-02-03T13:44:32;101247.28;;;13.12;57.25
5812;BME280;2932;52.400;9.558;2023-02-03T13:46:58;101238.81;;;12.84;56.40
5812;BME280;2932;52.400;9.558;2023-02-03T13:49:31;101258.16;;;13.05;56.12
5812;BME280;2932;52.400;9.558;2023-02-03T13:51:58;101253.16;;;12.86;56.30
5812;BME280;2932;52.400;9.558;2023-02-03T13:54:29;101260.84;;;12.44;56.55
5812;BME280;2932;52.400;9.558;2023-02-03T13:57:01;101265.84;;;12.50;56.38
5812;BME280;2932;52.400;9.558;2023-02-03T13:59:48;101257.94;;;12.40;56.64
5812;BME280;2932;52.400;9.558;2023-02-03T14:14:57;101280.81;;;12.25;58.87
5812;BME280;2932;52.400;9.558;2023-02-03T14:19:59;101287.78;;;12.10;59.58
5812;BME280;2932;52.400;9.558;2023-02-03T14:22:25;101273.75;;;12.27;59.02
5812;BME280;2932;52.400;9.558;2023-02-03T14:24:54;101277.03;;;12.42;58.22
5812;BME280;2932;52.400;9.558;2023-02-03T14:27:24;101290.66;;;12.34;58.15
5812;BME280;2932;52.400;9.558;2023-02-03T14:30:07;101297.88;;;11.94;58.85
5812;BME280;2932;52.400;9.558;2023-02-03T14:32:58;101285.09;;;11.81;58.61
5812;BME280;2932;52.400;9.558;2023-02-03T14:35:34;101289.47;;;12.23;58.16
5812;BME280;2932;52.400;9.558;2023-02-03T14:38:10;101303.38;;;11.82;58.98
5812;BME280;2932;52.400;9.558;2023-02-03T14:40:53;101310.56;;;11.74;58.97
5812;BME280;2932;52.400;9.558;2023-02-03T14:49:01;101316.63;;;11.47;60.09
5812;BME280;2932;52.400;9.558;2023-02-03T15:00:29;101336.09;;;11.88;59.92
5812;BME280;2932;52.400;9.558;2023-02-03T15:05:42;101343.81;;;11.53;60.43
5812;BME280;2932;52.400;9.558;2023-02-03T15:08:45;101341.16;;;11.27;60.94
5812;BME280;2932;52.400;9.558;2023-02-03T15:11:24;101342.06;;;11.11;61.30
5812;BME280;2932;52.400;9.558;2023-02-03T15:13:51;101328.53;;;11.09;61.53
5812;BME280;2932;52.400;9.558;2023-02-03T15:16:21;101355.59;;;11.03;61.46
5812;BME280;2932;52.400;9.558;2023-02-03T15:18:58;101349.47;;;11.27;61.03
5812;BME280;2932;52.400;9.558;2023-02-03T15:21:24;101360.16;;;10.99;61.66
5812;BME280;2932;52.400;9.558;2023-02-03T15:23:50;101357.25;;;11.34;61.21
5812;BME280;2932;52.400;9.558;2023-02-03T15:26:23;101368.13;;;11.10;62.17
5812;BME280;2932;52.400;9.558;2023-02-03T15:29:03;101369.94;;;10.97;62.04
5812;BME280;2932;52.400;9.558;2023-02-03T15:31:43;101380.22;;;10.96;62.58
5812;BME280;2932;52.400;9.558;2023-02-03T15:34:26;101378.94;;;10.85;62.80
5812;BME280;2932;52.400;9.558;2023-02-03T15:36:56;101376.66;;;10.87;62.84
5812;BME280;2932;52.400;9.558;2023-02-03T15:39:38;101382.78;;;11.48;61.70
5812;BME280;2932;52.400;9.558;2023-02-03T15:42:12;101383.44;;;11.45;61.61
5812;BME280;2932;52.400;9.558;2023-02-03T15:44:42;101394.56;;;11.36;61.54
5812;BME280;2932;52.400;9.558;2023-02-03T15:47:25;101400.44;;;11.64;60.73
5812;BME280;2932;52.400;9.558;2023-02-03T15:52:43;101397.81;;;10.92;62.32